Time;durP1;ratioP1;P1;durP2;ratioP2;P2;SDS_P1;SDS_P2;PMS_P1;PMS_P2;Temp;Humidity;BMP_temperature;BMP_pressure;BME280_temperature;BME280_humidity;BME280_pressure;Samples;Min_cycle;Max_cycle;Signal;HPM_P1;HPM_P2
2023/12/07 00:01:09;;;;;;;45.67;21.58;;;;;;;3.48;100.00;100408.19;5035085;28;20033;-71
2023/12/07 00:03:34;;;;;;;42.42;21.75;;;;;;;3.47;100.00;100412.00;5029198;28;20018;-71
2023/12/07 00:06:00;;;;;;;43.42;22.13;;;;;;;3.48;100.00;100407.31;5046971;28;20028;-71
2023/12/07 00:08:25;;;;;;;46.03;22.25;;;;;;;3.47;100.00;100412.00;5016357;28;20043;-71
2023/12/07 00:10:51;;;;;;;44.28;21.75;;;;;;;3.48;100.00;100412.81;5018483;28;20048;-71
2023/12/07 00:13:16;;;;;;;46.67;21.98;;;;;;;3.47;100.00;100400.19;5018428;28;20398;-71
2023/12/07 00:15:42;;;;;;;43.20;20.70;;;;;;;3.49;100.00;100403.50;5018482;28;20079;-71
2023/12/07 00:18:07;;;;;;;43.15;20.77;;;;;;;3.47;100.00;100414.72;5034262;28;20502;-71
2023/12/07 00:20:33;;;;;;;43.40;20.83;;;;;;;3.48;100.00;100405.44;5018376;28;20029;-71
2023/12/07 00:23:03;;;;;;;39.70;19.70;;;;;;;3.50;100.00;100394.19;5015380;28;20037;-71
2023/12/07 00:25:29;;;;;;;39.67;19.90;;;;;;;3.50;100.00;100388.69;4995585;28;20067;-71
2023/12/07 00:27:54;;;;;;;42.42;21.30;;;;;;;3.48;100.00;100380.72;5023682;28;20017;-71
2023/12/07 00:30:20;;;;;;;45.80;21.20;;;;;;;3.51;100.00;100373.88;5025966;28;20029;-71
2023/12/07 00:32:46;;;;;;;38.63;20.33;;;;;;;3.48;100.00;100380.72;5002131;28;20032;-71
2023/12/07 00:35:12;;;;;;;38.20;19.98;;;;;;;3.48;100.00;100374.38;5038015;28;20030;-71
2023/12/07 00:37:37;;;;;;;39.90;20.10;;;;;;;3.49;100.00;100359.59;4989715;28;20037;-71
2023/12/07 00:40:03;;;;;;;41.13;20.75;;;;;;;3.49;100.00;100329.38;5038911;28;20033;-71
2023/12/07 00:42:29;;;;;;;43.47;19.50;;;;;;;3.48;100.00;100303.00;5005940;28;20060;-71
2023/12/07 00:44:55;;;;;;;40.55;20.00;;;;;;;3.48;100.00;100316.72;5038974;28;20541;-71
2023/12/07 00:47:20;;;;;;;39.30;19.73;;;;;;;3.46;100.00;100349.94;5022261;28;20030;-71
2023/12/07 00:49:46;;;;;;;37.25;18.70;;;;;;;3.47;100.00;100356.25;5040251;28;20080;-71
2023/12/07 00:52:12;;;;;;;33.83;17.75;;;;;;;3.45;100.00;100352.91;5035952;28;20025;-71
2023/12/07 00:54:38;;;;;;;42.85;20.15;;;;;;;3.46;100.00;100349.94;5060860;28;20037;-71
2023/12/07 00:57:03;;;;;;;36.22;18.58;;;;;;;3.46;100.00;100349.09;5028426;28;20032;-71
2023/12/07 00:59:33;;;;;;;33.92;17.50;;;;;;;3.46;100.00;100336.19;5062463;28;20037;-71
2023/12/07 01:02:02;;;;;;;34.72;17.27;;;;;;;3.48;100.00;100344.16;5019847;28;20036;-71
2023/12/07 01:04:28;;;;;;;33.72;16.85;;;;;;;3.47;100.00;100342.53;5011771;28;20076;-71
2023/12/07 01:06:54;;;;;;;33.38;18.38;;;;;;;3.46;100.00;100333.47;5021931;28;20163;-71
2023/12/07 01:09:20;;;;;;;32.30;16.75;;;;;;;3.50;100.00;100328.28;5022091;28;20022;-71
2023/12/07 01:11:45;;;;;;;38.45;17.40;;;;;;;3.48;100.00;100308.47;5021701;28;20409;-71
2023/12/07 01:14:11;;;;;;;37.42;17.33;;;;;;;3.49;100.00;100321.97;5021890;28;20025;-71
2023/12/07 01:16:37;;;;;;;33.03;16.70;;;;;;;3.48;100.00;100319.47;5021518;28;20037;-71
2023/12/07 01:19:02;;;;;;;35.35;17.13;;;;;;;3.47;100.00;100306.81;5038079;28;20553;-71
2023/12/07 01:21:28;;;;;;;35.40;17.08;;;;;;;3.50;100.00;100292.59;5038106;28;20037;-71
2023/12/07 01:23:53;;;;;;;34.17;15.82;;;;;;;3.48;100.00;100275.53;5021638;28;20064;-71
2023/12/07 01:26:19;;;;;;;29.08;14.95;;;;;;;3.50;100.00;100265.13;5021595;28;20053;-71
2023/12/07 01:28:44;;;;;;;34.30;15.93;;;;;;;3.46;100.00;100270.31;5036639;28;20029;-71
2023/12/07 01:31:10;;;;;;;29.00;15.52;;;;;;;3.47;100.00;100262.91;5034668;28;20025;-71
2023/12/07 01:33:35;;;;;;;32.15;15.35;;;;;;;3.47;100.00;100268.38;5021317;28;20037;-71
2023/12/07 01:36:01;;;;;;;32.38;15.27;;;;;;;3.47;100.00;100279.38;5037841;28;20033;-71
2023/12/07 01:38:26;;;;;;;31.55;15.63;;;;;;;3.46;100.00;100277.72;5037927;28;20030;-71
2023/12/07 01:40:52;;;;;;;28.52;14.52;;;;;;;3.45;100.00;100279.59;5004883;28;20482;-71
2023/12/07 01:43:20;;;;;;;30.05;14.63;;;;;;;3.44;100.00;100280.69;5021188;28;20476;-71
2023/12/07 01:45:46;;;;;;;30.58;14.98;;;;;;;3.48;100.00;100292.84;5037076;28;20452;-71
2023/12/07 01:48:12;;;;;;;28.95;13.95;;;;;;;3.46;100.00;100289.53;5004561;28;20022;-71
2023/12/07 01:50:37;;;;;;;26.92;14.85;;;;;;;3.44;100.00;100299.91;5007019;28;20033;-71
2023/12/07 01:53:03;;;;;;;29.25;14.80;;;;;;;3.45;100.00;100290.59;5021189;28;20041;-71
2023/12/07 01:55:28;;;;;;;29.25;14.80;;;;;;;3.46;100.00;100291.44;5037821;28;20048;-71
2023/12/07 01:57:53;;;;;;;28.63;14.00;;;;;;;3.47;100.00;100290.34;5020840;28;20037;-71
2023/12/07 02:00:19;;;;;;;28.55;14.52;;;;;;;3.47;100.00;100284.84;5020721;28;20034;-71
2023/12/07 02:02:45;;;;;;;25.20;13.82;;;;;;;3.46;100.00;100280.47;5004073;28;20440;-71
2023/12/07 02:05:10;;;;;;;24.55;13.02;;;;;;;3.47;100.00;100282.13;5027581;28;20064;-71
2023/12/07 02:07:36;;;;;;;27.38;13.40;;;;;;;3.48;100.00;100272.78;5021004;28;20029;-71
2023/12/07 02:10:03;;;;;;;25.00;13.90;;;;;;;3.47;100.00;100271.97;5009436;28;20033;-71
2023/12/07 02:12:29;;;;;;;26.15;13.23;;;;;;;3.47;100.00;100262.91;5012439;28;20041;-71
2023/12/07 02:14:55;;;;;;;24.70;12.57;;;;;;;3.47;100.00;100251.91;5021086;28;20025;-71
2023/12/07 02:18:03;;;;;;;31.15;13.05;;;;;;;3.48;100.00;100259.06;5020367;28;20045;-71
2023/12/07 02:20:56;;;;;;;31.92;14.45;;;;;;;3.47;100.00;100254.66;5037191;28;20036;-71
2023/12/07 02:23:22;;;;;;;26.80;12.65;;;;;;;3.44;100.00;100247.75;5024263;28;20037;-71
2023/12/07 02:25:54;;;;;;;22.27;12.02;;;;;;;3.46;100.00;100250.25;5019763;28;20033;-71
2023/12/07 02:28:19;;;;;;;31.60;13.23;;;;;;;3.46;100.00;100255.75;5035719;28;20025;-72
2023/12/07 02:30:45;;;;;;;24.23;11.75;;;;;;;3.45;100.00;100259.56;5036948;28;20025;-71
2023/12/07 02:33:11;;;;;;;22.50;12.50;;;;;;;3.45;100.00;100259.56;5034162;28;20105;-71
2023/12/07 02:35:37;;;;;;;20.88;11.73;;;;;;;3.43;100.00;100245.28;5020414;28;20139;-71
2023/12/07 02:38:03;;;;;;;22.02;11.50;;;;;;;3.42;100.00;100251.84;5004096;28;20036;-71
2023/12/07 02:40:28;;;;;;;23.10;11.25;;;;;;;3.43;100.00;100256.25;5036693;28;20033;-71
2023/12/07 02:42:54;;;;;;;22.40;11.75;;;;;;;3.43;100.00;100251.59;5036783;28;20033;-71
2023/12/07 02:45:19;;;;;;;21.02;11.65;;;;;;;3.39;100.00;100236.69;5033397;28;20026;-71
2023/12/07 02:47:45;;;;;;;21.90;11.38;;;;;;;3.38;100.00;100237.78;5036305;28;20040;-71
2023/12/07 02:50:11;;;;;;;19.20;10.38;;;;;;;3.36;100.00;100239.97;5021318;28;20025;-71
2023/12/07 02:52:36;;;;;;;23.08;11.25;;;;;;;3.36;100.00;100238.03;5020016;28;20112;-71
2023/12/07 02:55:02;;;;;;;18.50;9.60;;;;;;;3.38;100.00;100236.97;5036617;28;20064;-71
2023/12/07 02:57:28;;;;;;;24.10;10.77;;;;;;;3.33;100.00;100230.31;5019024;28;20030;-70
2023/12/07 02:59:53;;;;;;;21.95;11.10;;;;;;;3.33;100.00;100213.00;5036149;28;20030;-71
2023/12/07 03:02:19;;;;;;;21.02;10.55;;;;;;;3.33;100.00;100213.00;5032914;28;20498;-71
2023/12/07 03:04:44;;;;;;;16.13;9.98;;;;;;;3.29;100.00;100206.38;5020247;28;20084;-71
2023/12/07 03:07:10;;;;;;;19.08;10.15;;;;;;;3.30;100.00;100216.28;5005396;28;20034;-71
2023/12/07 03:09:35;;;;;;;18.13;11.07;;;;;;;3.30;100.00;100208.84;5019721;28;20367;-71
2023/12/07 03:12:00;;;;;;;18.25;9.80;;;;;;;3.28;100.00;100200.03;5036013;28;20029;-71
2023/12/07 03:14:26;;;;;;;20.95;10.32;;;;;;;3.28;100.00;100207.44;5003176;28;20021;-71
2023/12/07 03:16:51;;;;;;;22.88;9.85;;;;;;;3.29;100.00;100203.63;5035785;28;20096;-71
2023/12/07 03:19:17;;;;;;;20.55;10.25;;;;;;;3.28;100.00;100210.19;5035627;28;20037;-71
2023/12/07 03:21:45;;;;;;;23.52;10.70;;;;;;;3.29;100.00;100212.69;5019421;28;20025;-71
2023/12/07 03:24:11;;;;;;;22.15;11.05;;;;;;;3.31;100.00;100202.28;5003170;28;20033;-71
2023/12/07 03:26:37;;;;;;;19.15;10.20;;;;;;;3.30;100.00;100210.78;5019537;28;20107;-71
2023/12/07 03:29:02;;;;;;;23.60;11.73;;;;;;;3.30;100.00;100205.28;5034392;28;20044;-71
2023/12/07 03:31:28;;;;;;;21.85;11.13;;;;;;;3.33;100.00;100202.03;5037013;28;20029;-71
2023/12/07 03:33:54;;;;;;;22.00;11.30;;;;;;;3.33;100.00;100202.84;5035518;28;20077;-71
2023/12/07 03:36:19;;;;;;;24.02;10.57;;;;;;;3.33;100.00;100194.63;5035511;28;20034;-71
2023/12/07 03:38:45;;;;;;;23.67;10.63;;;;;;;3.33;100.00;100189.13;5035615;28;20446;-71
2023/12/07 03:41:10;;;;;;;20.08;10.93;;;;;;;3.34;100.00;100195.44;5002771;28;20505;-71
2023/12/07 03:43:36;;;;;;;18.30;10.50;;;;;;;3.34;100.00;100204.53;5036780;28;20037;-71
2023/12/07 03:46:05;;;;;;;23.23;11.50;;;;;;;3.34;100.00;100210.03;5019044;28;20504;-71
2023/12/07 03:48:31;;;;;;;21.60;10.32;;;;;;;3.35;100.00;100203.44;5035137;28;20025;-71
2023/12/07 03:50:56;;;;;;;24.23;10.57;;;;;;;3.36;100.00;100202.34;5036679;28;20033;-71
2023/12/07 03:53:22;;;;;;;24.27;10.73;;;;;;;3.38;100.00;100195.78;5018744;28;20545;-71
2023/12/07 03:55:47;;;;;;;20.70;9.85;;;;;;;3.36;100.00;100174.06;5019026;28;20041;-71
2023/12/07 03:58:13;;;;;;;23.58;10.73;;;;;;;3.35;100.00;100166.94;5002441;28;20582;-71
2023/12/07 04:00:39;;;;;;;21.42;10.07;;;;;;;3.35;100.00;100166.94;5018617;28;20021;-71
2023/12/07 04:03:04;;;;;;;21.38;10.85;;;;;;;3.38;100.00;100157.38;5033704;28;20037;-71
2023/12/07 04:05:30;;;;;;;20.30;9.82;;;;;;;3.36;100.00;100155.69;5039754;28;20028;-71
2023/12/07 04:07:56;;;;;;;17.77;10.05;;;;;;;3.38;100.00;100154.63;5016547;28;20026;-71
2023/12/07 04:10:21;;;;;;;20.15;10.15;;;;;;;3.39;100.00;100148.84;4998550;28;20368;-71
2023/12/07 04:12:47;;;;;;;24.90;10.15;;;;;;;3.38;100.00;100149.94;5018530;28;20056;-71
2023/12/07 04:15:12;;;;;;;18.90;9.23;;;;;;;3.39;100.00;100140.63;5018731;28;20040;-71
2023/12/07 04:17:37;;;;;;;20.40;10.20;;;;;;;3.39;100.00;100150.78;5018091;28;20096;-71
2023/12/07 04:20:05;;;;;;;21.52;9.27;;;;;;;3.38;100.00;100149.94;5002349;28;20050;-71
2023/12/07 04:22:31;;;;;;;19.77;9.23;;;;;;;3.40;100.00;100152.44;5018533;28;20037;-71
2023/12/07 04:24:56;;;;;;;20.25;9.75;;;;;;;3.41;100.00;100143.13;5002226;28;20389;-71
2023/12/07 04:27:22;;;;;;;19.35;10.40;;;;;;;3.42;100.00;100139.28;5034592;28;20407;-71
2023/12/07 04:29:47;;;;;;;19.20;9.48;;;;;;;3.42;100.00;100133.78;5035011;28;20034;-71
2023/12/07 04:32:12;;;;;;;16.30;8.82;;;;;;;3.41;100.00;100121.16;5035183;28;20029;-71
2023/12/07 04:34:38;;;;;;;18.98;8.98;;;;;;;3.42;100.00;100120.06;4999878;28;20033;-71
2023/12/07 04:37:03;;;;;;;18.67;8.82;;;;;;;3.42;100.00;100115.41;5016468;28;20471;-71
2023/12/07 04:39:29;;;;;;;18.35;8.93;;;;;;;3.42;100.00;100123.63;5015004;28;20034;-71
2023/12/07 04:41:54;;;;;;;19.33;9.75;;;;;;;3.44;100.00;100117.91;5013306;28;20041;-71
2023/12/07 04:44:20;;;;;;;18.02;9.05;;;;;;;3.44;100.00;100109.66;4998870;28;20052;-71
2023/12/07 04:46:45;;;;;;;18.73;8.70;;;;;;;3.45;100.00;100127.78;5016738;28;20037;-71
2023/12/07 04:49:11;;;;;;;17.33;7.72;;;;;;;3.45;100.00;100134.09;4998479;28;20457;-71
2023/12/07 04:51:36;;;;;;;17.42;7.20;;;;;;;3.45;100.00;100125.03;5034560;28;20029;-71
2023/12/07 04:54:02;;;;;;;17.60;7.50;;;;;;;3.45;100.00;100123.13;4998887;28;20109;-71
2023/12/07 04:56:27;;;;;;;18.00;7.80;;;;;;;3.46;100.00;100118.47;5001352;28;20469;-71
2023/12/07 04:58:53;;;;;;;12.85;7.85;;;;;;;3.47;100.00;100109.97;5001652;28;20033;-71
2023/12/07 05:01:21;;;;;;;16.50;7.38;;;;;;;3.49;100.00;100112.47;5034475;28;20038;-71
2023/12/07 05:03:47;;;;;;;13.30;7.57;;;;;;;3.50;100.00;100122.34;4994826;28;20109;-71
2023/12/07 05:06:12;;;;;;;17.92;6.75;;;;;;;3.50;100.00;100114.13;5015258;28;20386;-71
2023/12/07 05:08:39;;;;;;;15.43;6.88;;;;;;;3.52;100.00;100112.78;5034689;28;20036;-71
2023/12/07 05:11:05;;;;;;;17.17;7.00;;;;;;;3.52;100.00;100100.97;5018202;28;20083;-71
2023/12/07 05:13:33;;;;;;;17.40;6.95;;;;;;;3.52;100.00;100100.97;5001915;28;20030;-71
2023/12/07 05:15:59;;;;;;;11.50;6.20;;;;;;;3.55;100.00;100095.78;5034415;28;20485;-71
2023/12/07 05:18:25;;;;;;;13.68;6.18;;;;;;;3.57;100.00;100095.53;5025157;28;20461;-71
2023/12/07 05:20:50;;;;;;;9.73;5.70;;;;;;;3.55;100.00;100090.28;5024115;28;20052;-71
2023/12/07 05:23:16;;;;;;;18.42;6.20;;;;;;;3.58;100.00;100094.44;5021740;28;20021;-71
2023/12/07 05:25:41;;;;;;;13.00;6.15;;;;;;;3.58;100.00;100108.19;4986986;28;20037;-71
2023/12/07 05:28:07;;;;;;;15.15;5.70;;;;;;;3.60;100.00;100102.44;5036841;28;20545;-71
2023/12/07 05:30:32;;;;;;;15.27;5.78;;;;;;;3.60;100.00;100097.78;5003225;28;20038;-71
2023/12/07 05:32:58;;;;;;;12.13;5.55;;;;;;;3.62;100.00;100103.00;5021730;28;20044;-71
2023/12/07 05:35:23;;;;;;;12.90;5.75;;;;;;;3.60;100.00;100113.41;5011623;28;20040;-71
2023/12/07 05:37:49;;;;;;;15.40;5.28;;;;;;;3.61;100.00;100115.91;5021436;28;20481;-71
2023/12/07 05:40:15;;;;;;;13.63;5.07;;;;;;;3.62;100.00;100109.31;5037793;28;20119;-71
2023/12/07 05:42:41;;;;;;;9.93;4.75;;;;;;;3.64;100.00;100109.06;5021528;28;20033;-71
2023/12/07 05:45:07;;;;;;;10.00;4.85;;;;;;;3.61;100.00;100113.16;5037743;28;20026;-71
2023/12/07 05:47:32;;;;;;;11.93;5.15;;;;;;;3.63;100.00;100112.91;5037462;28;20037;-71
2023/12/07 05:49:59;;;;;;;9.43;4.93;;;;;;;3.63;100.00;100097.25;5006596;28;20488;-71
2023/12/07 05:52:25;;;;;;;11.00;4.75;;;;;;;3.65;100.00;100100.56;5021350;28;20041;-71
2023/12/07 05:54:50;;;;;;;9.93;5.05;;;;;;;3.65;100.00;100089.59;5039167;28;20025;-71
2023/12/07 05:57:16;;;;;;;16.88;6.78;;;;;;;3.65;100.00;100099.72;5032597;28;20634;-71
2023/12/07 05:59:43;;;;;;;12.60;5.28;;;;;;;3.65;100.00;100100.56;5020790;28;20032;-71
2023/12/07 06:02:08;;;;;;;11.80;5.03;;;;;;;3.64;100.00;100095.31;5037517;28;20546;-71
2023/12/07 06:04:34;;;;;;;13.32;5.25;;;;;;;3.64;100.00;100092.59;5004305;28;20034;-73
2023/12/07 06:06:59;;;;;;;11.10;4.60;;;;;;;3.63;100.00;100091.75;5020856;28;20033;-74
2023/12/07 06:09:25;;;;;;;13.18;5.53;;;;;;;3.66;100.00;100090.41;5004414;28;20432;-71
2023/12/07 06:11:51;;;;;;;11.70;5.05;;;;;;;3.64;100.00;100093.41;5037309;28;20037;-71
2023/12/07 06:14:16;;;;;;;14.00;4.75;;;;;;;3.63;100.00;100094.50;5023948;28;20079;-71
2023/12/07 06:16:42;;;;;;;9.82;4.72;;;;;;;3.64;100.00;100090.66;5001069;28;20026;-72
2023/12/07 06:19:07;;;;;;;10.27;5.18;;;;;;;3.65;100.00;100083.25;5030559;28;20061;-71
2023/12/07 06:21:33;;;;;;;13.55;5.00;;;;;;;3.64;100.00;100082.41;5020588;28;20038;-71
2023/12/07 06:23:58;;;;;;;9.85;4.85;;;;;;;3.64;100.00;100081.59;5020601;28;20486;-71
2023/12/07 06:26:24;;;;;;;12.07;4.80;;;;;;;3.64;100.00;100076.09;5017310;28;20427;-71
2023/12/07 06:28:50;;;;;;;10.73;4.47;;;;;;;3.62;100.00;100070.84;5015419;28;20026;-71
2023/12/07 06:31:19;;;;;;;9.98;4.50;;;;;;;3.63;100.00;100072.53;5036926;28;20033;-71
2023/12/07 06:33:45;;;;;;;10.77;4.57;;;;;;;3.62;100.00;100070.84;5019013;28;20076;-71
2023/12/07 06:36:11;;;;;;;11.30;4.80;;;;;;;3.63;100.00;100082.69;5023822;28;20030;-71
2023/12/07 06:38:36;;;;;;;13.20;5.30;;;;;;;3.62;100.00;100078.28;4996481;28;20026;-71
2023/12/07 06:41:01;;;;;;;9.40;4.72;;;;;;;3.60;100.00;100070.31;5000512;28;20034;-71
2023/12/07 06:43:27;;;;;;;12.30;5.47;;;;;;;3.59;100.00;100068.63;5032624;28;20040;-71
2023/12/07 06:45:52;;;;;;;17.00;5.22;;;;;;;3.59;100.00;100060.41;5028943;28;20030;-71
2023/12/07 06:48:18;;;;;;;12.75;5.00;;;;;;;3.58;100.00;100056.81;5012007;28;20026;-71
2023/12/07 06:50:43;;;;;;;9.30;5.13;;;;;;;3.62;100.00;100050.81;5021943;28;20478;-71
2023/12/07 06:53:09;;;;;;;10.27;5.78;;;;;;;3.61;100.00;100054.66;5003688;28;20025;-71
2023/12/07 06:55:34;;;;;;;11.75;5.30;;;;;;;3.58;100.00;100039.53;5037792;28;20470;-71
2023/12/07 06:58:00;;;;;;;12.10;5.28;;;;;;;3.56;100.00;100033.47;5001212;28;20041;-71
2023/12/07 07:00:25;;;;;;;12.40;5.13;;;;;;;3.59;100.00;100032.94;5016783;28;20033;-71
2023/12/07 07:02:51;;;;;;;13.07;6.07;;;;;;;3.55;100.00;100023.56;5015319;28;20470;-71
2023/12/07 07:05:16;;;;;;;15.50;6.38;;;;;;;3.54;100.00;100013.69;5007800;28;20095;-71
2023/12/07 07:07:41;;;;;;;14.80;6.13;;;;;;;3.53;100.00;100004.59;5023678;28;20483;-71
2023/12/07 07:10:12;;;;;;;12.00;6.13;;;;;;;3.54;100.00;99997.22;5016413;28;20030;-71
2023/12/07 07:12:37;;;;;;;13.88;5.75;;;;;;;3.53;100.00;99995.53;5010941;28;20117;-71
2023/12/07 07:15:03;;;;;;;11.20;5.47;;;;;;;3.53;100.00;100001.03;5019605;28;20115;-71
2023/12/07 07:17:29;;;;;;;17.85;5.45;;;;;;;3.51;100.00;99997.72;4983393;28;20053;-71
2023/12/07 07:19:55;;;;;;;11.13;5.25;;;;;;;3.52;100.00;100002.13;5001594;28;20041;-71
2023/12/07 07:22:21;;;;;;;10.57;5.22;;;;;;;3.50;100.00;100010.63;5019667;28;20124;-71
2023/12/07 07:24:47;;;;;;;12.95;5.55;;;;;;;3.50;100.00;100010.63;5019573;28;20397;-71
2023/12/07 07:27:12;;;;;;;10.88;5.07;;;;;;;3.47;100.00;100005.66;5001012;28;20100;-71
2023/12/07 07:29:38;;;;;;;11.90;5.55;;;;;;;3.49;100.00;99999.91;5019487;28;20036;-71
2023/12/07 07:32:03;;;;;;;10.93;5.20;;;;;;;3.49;100.00;99997.16;5019295;28;20041;-71
2023/12/07 07:34:29;;;;;;;13.57;6.28;;;;;;;3.49;100.00;99998.00;4999632;28;20029;-71
2023/12/07 07:36:54;;;;;;;9.82;5.15;;;;;;;3.47;100.00;99994.66;5026564;28;20033;-70
2023/12/07 07:39:19;;;;;;;11.35;5.30;;;;;;;3.47;100.00;100002.06;5015846;28;20026;-71
2023/12/07 07:41:45;;;;;;;11.15;4.90;;;;;;;3.49;100.00;99995.25;5006000;28;20042;-71
2023/12/07 07:44:10;;;;;;;11.60;5.65;;;;;;;3.47;100.00;99991.09;5002178;28;20036;-71
2023/12/07 07:46:36;;;;;;;9.85;4.95;;;;;;;3.46;100.00;99986.69;5000499;28;20025;-71
2023/12/07 07:49:03;;;;;;;11.23;5.88;;;;;;;3.46;100.00;99981.22;5049332;28;20025;-71
2023/12/07 07:51:29;;;;;;;9.93;5.20;;;;;;;3.46;100.00;99968.31;5037744;28;20029;-71
2023/12/07 07:53:54;;;;;;;12.45;5.85;;;;;;;3.45;100.00;99963.06;5015836;28;20552;-71
2023/12/07 07:56:20;;;;;;;11.15;5.70;;;;;;;3.42;100.00;99961.66;5035282;28;20559;-71
2023/12/07 07:58:46;;;;;;;10.00;6.47;;;;;;;3.42;100.00;99958.09;5023124;28;20034;-71
2023/12/07 08:01:11;;;;;;;12.23;5.85;;;;;;;3.43;100.00;99965.25;5016470;28;20382;-71
2023/12/07 08:03:36;;;;;;;9.27;5.43;;;;;;;3.43;100.00;99968.00;5031891;28;20723;-71
2023/12/07 08:06:02;;;;;;;11.77;5.60;;;;;;;3.43;100.00;99959.78;5002470;28;20034;-71
2023/12/07 08:08:27;;;;;;;11.68;6.22;;;;;;;3.44;100.00;99953.19;5002282;28;20021;-71
2023/12/07 08:10:53;;;;;;;10.63;6.10;;;;;;;3.46;100.00;99951.00;5018834;28;20547;-71
2023/12/07 08:13:18;;;;;;;10.88;6.68;;;;;;;3.42;100.00;99950.69;4998536;28;20026;-71
2023/12/07 08:15:44;;;;;;;14.60;6.18;;;;;;;3.42;100.00;99936.13;5011380;28;20044;-71
2023/12/07 08:18:10;;;;;;;13.52;6.28;;;;;;;3.47;100.00;99938.94;4997765;28;20484;-71
2023/12/07 08:20:35;;;;;;;9.88;5.80;;;;;;;3.43;100.00;99948.78;5028704;28;20037;-71
2023/12/07 08:23:01;;;;;;;11.35;6.03;;;;;;;3.44;100.00;99948.50;5001340;28;20038;-71
2023/12/07 08:25:26;;;;;;;16.88;6.28;;;;;;;3.45;100.00;99952.91;5008277;28;20030;-71
2023/12/07 08:27:52;;;;;;;14.48;5.93;;;;;;;3.44;100.00;99950.44;5033651;28;20060;-71
2023/12/07 08:30:19;;;;;;;12.98;6.18;;;;;;;3.45;100.00;99947.41;5017936;28;20490;-71
2023/12/07 08:32:45;;;;;;;12.25;5.97;;;;;;;3.45;100.00;99938.34;5018506;28;20545;-71
2023/12/07 08:35:10;;;;;;;11.70;5.80;;;;;;;3.43;100.00;99938.63;5018404;28;20030;-71
2023/12/07 08:37:38;;;;;;;15.55;6.10;;;;;;;3.46;100.00;99926.31;5001882;28;20021;-71
2023/12/07 08:40:04;;;;;;;14.18;6.60;;;;;;;3.46;100.00;99926.31;4982690;28;20060;-71
2023/12/07 08:42:31;;;;;;;9.75;5.68;;;;;;;3.47;100.00;99923.28;5001948;28;20029;-71
2023/12/07 08:44:57;;;;;;;14.73;6.32;;;;;;;3.46;100.00;99921.63;5034764;28;20121;-71
2023/12/07 08:47:22;;;;;;;11.38;6.38;;;;;;;3.46;100.00;99918.06;4998428;28;20069;-71
2023/12/07 08:49:48;;;;;;;11.02;5.97;;;;;;;3.47;100.00;99916.97;5013829;28;20231;-71
2023/12/07 08:52:13;;;;;;;12.57;6.63;;;;;;;3.46;100.00;99907.09;5018455;28;20041;-71
2023/12/07 08:54:39;;;;;;;13.05;6.07;;;;;;;3.49;100.00;99898.31;5018606;28;20037;-71
2023/12/07 08:57:07;;;;;;;13.75;6.68;;;;;;;3.49;100.00;99898.31;5020875;28;20397;-71
2023/12/07 08:59:32;;;;;;;11.70;6.53;;;;;;;3.50;100.00;99903.53;5019444;28;20502;-71
2023/12/07 09:01:58;;;;;;;9.95;5.78;;;;;;;3.50;100.00;99908.22;5022074;28;20041;-71
2023/12/07 09:04:23;;;;;;;12.68;6.43;;;;;;;3.51;100.00;99901.63;5005432;28;20025;-71
2023/12/07 09:06:49;;;;;;;11.55;6.90;;;;;;;3.52;100.00;99892.31;5038562;28;20025;-71
2023/12/07 09:09:14;;;;;;;12.77;6.75;;;;;;;3.52;100.00;99886.81;5038476;28;20474;-71
2023/12/07 09:11:40;;;;;;;11.27;6.80;;;;;;;3.52;100.00;99882.16;5019613;28;20030;-71
2023/12/07 09:14:05;;;;;;;12.18;5.80;;;;;;;3.53;100.00;99877.47;5030720;28;20049;-71
2023/12/07 09:16:31;;;;;;;12.15;6.72;;;;;;;3.55;100.00;99884.38;5005253;28;20040;-72
2023/12/07 09:18:56;;;;;;;11.02;6.60;;;;;;;3.56;100.00;99876.94;5001782;28;20034;-71
2023/12/07 09:21:21;;;;;;;16.27;6.45;;;;;;;3.57;100.00;99886.88;5017198;28;20029;-71
2023/12/07 09:23:47;;;;;;;16.67;6.55;;;;;;;3.58;100.00;99880.25;5030640;28;20041;-71
2023/12/07 09:26:12;;;;;;;16.10;7.47;;;;;;;3.61;100.00;99870.69;5036329;28;20029;-71
2023/12/07 09:28:39;;;;;;;13.18;6.70;;;;;;;3.60;100.00;99856.13;5020464;28;20034;-71
2023/12/07 09:31:05;;;;;;;21.33;8.07;;;;;;;3.61;100.00;99863.25;5021783;28;20026;-71
2023/12/07 09:33:30;;;;;;;13.15;6.72;;;;;;;3.60;100.00;99856.13;5001771;28;20110;-71
2023/12/07 09:35:56;;;;;;;14.77;6.35;;;;;;;3.60;100.00;99856.13;5018284;28;20038;-71
2023/12/07 09:38:21;;;;;;;11.90;6.20;;;;;;;3.60;100.00;99861.63;5030639;28;20041;-71
2023/12/07 09:40:47;;;;;;;13.20;7.13;;;;;;;3.61;100.00;99855.03;4998278;28;20033;-71
2023/12/07 09:43:13;;;;;;;12.23;6.72;;;;;;;3.61;100.00;99852.28;5014252;28;20037;-71
2023/12/07 09:45:38;;;;;;;12.70;7.18;;;;;;;3.59;100.00;99846.22;5011800;28;20117;-71
2023/12/07 09:48:04;;;;;;;15.50;7.05;;;;;;;3.59;100.00;99846.22;5020980;28;20030;-71
2023/12/07 09:50:30;;;;;;;12.40;6.78;;;;;;;3.60;100.00;99833.34;5022380;28;20025;-71
2023/12/07 09:52:56;;;;;;;11.98;7.07;;;;;;;3.59;100.00;99827.00;5021285;28;20033;-71
2023/12/07 09:55:22;;;;;;;10.05;6.63;;;;;;;3.64;100.00;99807.00;5004507;28;20079;-71
2023/12/07 09:57:48;;;;;;;15.57;7.25;;;;;;;3.62;100.00;99803.69;5001374;28;20033;-71
2023/12/07 10:00:14;;;;;;;11.25;6.75;;;;;;;3.62;100.00;99812.72;5033210;28;20026;-71
2023/12/07 10:02:41;;;;;;;13.15;7.30;;;;;;;3.65;100.00;99820.47;5000828;28;20029;-71
2023/12/07 10:05:10;;;;;;;11.32;6.40;;;;;;;3.65;100.00;99809.47;5019165;28;20534;-72
2023/12/07 10:07:39;;;;;;;16.35;7.20;;;;;;;3.67;100.00;99812.78;5003763;28;20030;-71
2023/12/07 10:10:05;;;;;;;12.30;6.97;;;;;;;3.67;100.00;99809.19;5018854;28;20010;-71
2023/12/07 10:12:33;;;;;;;11.88;7.15;;;;;;;3.70;100.00;99812.22;5032524;28;20599;-71
2023/12/07 10:14:59;;;;;;;12.52;7.10;;;;;;;3.72;100.00;99810.06;5016352;28;20037;-71
2023/12/07 10:17:24;;;;;;;13.40;6.85;;;;;;;3.72;100.00;99815.56;5017784;28;20379;-71
2023/12/07 10:20:12;;;;;;;13.75;7.15;;;;;;;3.73;100.00;99803.50;5032947;28;20034;-71
2023/12/07 10:22:39;;;;;;;14.07;7.38;;;;;;;3.77;100.00;99798.28;5004228;28;20087;-71
2023/12/07 10:25:04;;;;;;;13.60;6.85;;;;;;;3.78;100.00;99797.19;4984568;28;20386;-71
2023/12/07 10:27:30;;;;;;;15.85;7.45;;;;;;;3.80;100.00;99790.31;5003737;28;20029;-71
2023/12/07 10:29:55;;;;;;;15.90;7.35;;;;;;;3.78;100.00;99787.00;5000898;28;20021;-71
2023/12/07 10:32:24;;;;;;;10.80;6.95;;;;;;;3.79;100.00;99790.63;5010296;28;20045;-71
2023/12/07 10:34:49;;;;;;;14.40;7.30;;;;;;;3.80;100.00;99778.53;5000436;28;20037;-71
2023/12/07 10:37:15;;;;;;;13.02;6.90;;;;;;;3.80;100.00;99789.50;5021593;28;20091;-71
2023/12/07 10:39:40;;;;;;;13.07;7.05;;;;;;;3.81;100.00;99775.50;5011257;28;20026;-71
2023/12/07 10:42:08;;;;;;;14.90;7.00;;;;;;;3.80;100.00;99762.88;5016160;28;20042;-71
2023/12/07 10:44:33;;;;;;;14.25;7.40;;;;;;;3.83;100.00;99752.44;5020349;28;20028;-71
2023/12/07 10:46:59;;;;;;;14.02;7.25;;;;;;;3.83;100.00;99741.47;5020137;28;20033;-71
2023/12/07 10:49:24;;;;;;;10.75;6.75;;;;;;;3.84;100.00;99735.69;5019984;28;20030;-71
2023/12/07 10:51:59;;;;;;;12.95;6.90;;;;;;;3.83;100.00;99722.22;5051513;28;20145;-71
2023/12/07 10:54:26;;;;;;;13.45;7.10;;;;;;;3.85;100.00;99726.34;5014624;28;20028;-71
2023/12/07 10:56:51;;;;;;;13.35;7.57;;;;;;;3.87;100.00;99724.16;4997415;28;20030;-71
2023/12/07 10:59:17;;;;;;;16.83;6.90;;;;;;;3.90;100.00;99722.78;5016430;28;20040;-71
2023/12/07 11:01:43;;;;;;;12.57;8.02;;;;;;;3.91;100.00;99702.47;4999949;28;20568;-71
2023/12/07 11:04:12;;;;;;;16.02;7.45;;;;;;;3.95;100.00;99698.09;4994099;28;20036;-71
2023/12/07 11:06:39;;;;;;;14.43;7.80;;;;;;;3.96;100.00;99697.00;5028727;28;20022;-71
2023/12/07 11:09:08;;;;;;;12.00;6.68;;;;;;;3.97;100.00;99684.91;5026990;28;20025;-71
2023/12/07 11:11:41;;;;;;;12.48;7.28;;;;;;;4.00;100.00;99674.19;5007751;28;20034;-71